sensor_id;sensor_type;location;lat;lon;timestamp;temperature;humidity
30280;DHT22;17097;50.916;5.344;2023-01-16T00:01:42;7.00;99.90
30280;DHT22;17097;50.916;5.344;2023-01-16T00:04:08;6.90;99.90
30280;DHT22;17097;50.916;5.344;2023-01-16T00:06:34;7.00;99.90
30280;DHT22;17097;50.916;5.344;2023-01-16T00:09:02;7.00;99.90
30280;DHT22;17097;50.916;5.344;2023-01-16T00:11:28;7.00;99.90
30280;DHT22;17097;50.916;5.344;2023-01-16T00:13:53;6.90;99.90
30280;DHT22;17097;50.916;5.344;2023-01-16T00:16:21;6.90;99.90
30280;DHT22;17097;50.916;5.344;2023-01-16T00:18:48;6.80;99.90
30280;DHT22;17097;50.916;5.344;2023-01-16T00:21:14;6.70;99.90
30280;DHT22;17097;50.916;5.344;2023-01-16T00:23:40;6.60;99.90
30280;DHT22;17097;50.916;5.344;2023-01-16T00:26:07;6.60;99.90
30280;DHT22;17097;50.916;5.344;2023-01-16T00:28:35;6.70;99.90
30280;DHT22;17097;50.916;5.344;2023-01-16T00:31:04;6.70;99.90
30280;DHT22;17097;50.916;5.344;2023-01-16T00:33:30;6.70;99.90
30280;DHT22;17097;50.916;5.344;2023-01-16T00:35:56;6.70;99.90
30280;DHT22;17097;50.916;5.344;2023-01-16T00:38:22;6.70;99.90
30280;DHT22;17097;50.916;5.344;2023-01-16T00:40:48;6.60;99.90
30280;DHT22;17097;50.916;5.344;2023-01-16T00:43:16;6.60;99.90
30280;DHT22;17097;50.916;5.344;2023-01-16T00:45:42;6.60;99.90
30280;DHT22;17097;50.916;5.344;2023-01-16T00:48:08;6.50;99.90
30280;DHT22;17097;50.916;5.344;2023-01-16T00:50:35;6.60;99.90
30280;DHT22;17097;50.916;5.344;2023-01-16T00:53:00;6.60;99.90
30280;DHT22;17097;50.916;5.344;2023-01-16T00:55:26;6.70;99.90
30280;DHT22;17097;50.916;5.344;2023-01-16T00:57:52;6.70;99.90
30280;DHT22;17097;50.916;5.344;2023-01-16T01:00:20;6.70;99.90
30280;DHT22;17097;50.916;5.344;2023-01-16T01:02:50;6.70;99.90
30280;DHT22;17097;50.916;5.344;2023-01-16T01:05:16;6.60;99.90
30280;DHT22;17097;50.916;5.344;2023-01-16T01:07:42;6.80;99.90
30280;DHT22;17097;50.916;5.344;2023-01-16T01:10:09;6.70;99.90
30280;DHT22;17097;50.916;5.344;2023-01-16T01:12:35;6.80;99.90
30280;DHT22;17097;50.916;5.344;2023-01-16T01:15:02;6.80;99.90
30280;DHT22;17097;50.916;5.344;2023-01-16T01:17:31;6.70;99.90
30280;DHT22;17097;50.916;5.344;2023-01-16T01:19:57;6.80;99.90
30280;DHT22;17097;50.916;5.344;2023-01-16T01:22:22;6.60;99.90
30280;DHT22;17097;50.916;5.344;2023-01-16T01:24:49;6.50;99.90
30280;DHT22;17097;50.916;5.344;2023-01-16T01:27:18;6.60;99.90
30280;DHT22;17097;50.916;5.344;2023-01-16T01:29:44;6.60;99.90
30280;DHT22;17097;50.916;5.344;2023-01-16T01:32:09;6.60;99.90
30280;DHT22;17097;50.916;5.344;2023-01-16T01:34:35;6.60;99.90
30280;DHT22;17097;50.916;5.344;2023-01-16T01:37:06;6.50;99.90
30280;DHT22;17097;50.916;5.344;2023-01-16T01:39:32;6.50;99.90
30280;DHT22;17097;50.916;5.344;2023-01-16T01:41:58;6.50;99.90
30280;DHT22;17097;50.916;5.344;2023-01-16T01:45:00;6.50;99.90
30280;DHT22;17097;50.916;5.344;2023-01-16T01:47:32;6.60;99.90
30280;DHT22;17097;50.916;5.344;2023-01-16T01:50:00;6.50;99.90
30280;DHT22;17097;50.916;5.344;2023-01-16T01:52:29;6.60;99.90
30280;DHT22;17097;50.916;5.344;2023-01-16T01:54:59;6.70;99.90
30280;DHT22;17097;50.916;5.344;2023-01-16T01:57:37;6.70;99.90
30280;DHT22;17097;50.916;5.344;2023-01-16T02:00:12;6.80;99.90
30280;DHT22;17097;50.916;5.344;2023-01-16T02:02:45;6.70;99.90
30280;DHT22;17097;50.916;5.344;2023-01-16T02:05:16;6.90;99.90
30280;DHT22;17097;50.916;5.344;2023-01-16T02:07:44;6.90;99.90
30280;DHT22;17097;50.916;5.344;2023-01-16T02:12:56;7.00;99.90
30280;DHT22;17097;50.916;5.344;2023-01-16T02:15:25;7.20;99.90
30280;DHT22;17097;50.916;5.344;2023-01-16T02:17:51;7.30;99.90
30280;DHT22;17097;50.916;5.344;2023-01-16T02:20:49;7.30;99.90
30280;DHT22;17097;50.916;5.344;2023-01-16T02:31:49;7.40;99.90
30280;DHT22;17097;50.916;5.344;2023-01-16T02:37:32;7.30;99.90
30280;DHT22;17097;50.916;5.344;2023-01-16T02:40:14;7.10;99.90
30280;DHT22;17097;50.916;5.344;2023-01-16T02:42:44;6.90;99.90
30280;DHT22;17097;50.916;5.344;2023-01-16T02:45:56;7.00;99.90
30280;DHT22;17097;50.916;5.344;2023-01-16T02:48:21;7.20;99.90
30280;DHT22;17097;50.916;5.344;2023-01-16T02:51:02;7.00;99.90
30280;DHT22;17097;50.916;5.344;2023-01-16T02:53:45;7.20;99.90
30280;DHT22;17097;50.916;5.344;2023-01-16T02:56:20;7.40;99.90
30280;DHT22;17097;50.916;5.344;2023-01-16T02:58:51;7.50;99.90
30280;DHT22;17097;50.916;5.344;2023-01-16T03:01:18;7.40;99.90
30280;DHT22;17097;50.916;5.344;2023-01-16T03:04:04;7.30;99.90
30280;DHT22;17097;50.916;5.344;2023-01-16T03:06:44;7.20;99.90
30280;DHT22;17097;50.916;5.344;2023-01-16T03:09:40;6.90;99.90
30280;DHT22;17097;50.916;5.344;2023-01-16T03:33:55;7.70;99.90
30280;DHT22;17097;50.916;5.344;2023-01-16T03:36:47;7.80;99.90
30280;DHT22;17097;50.916;5.344;2023-01-16T03:39:15;7.50;99.90
30280;DHT22;17097;50.916;5.344;2023-01-16T03:41:46;7.40;99.90
30280;DHT22;17097;50.916;5.344;2023-01-16T03:44:19;7.50;99.90
30280;DHT22;17097;50.916;5.344;2023-01-16T03:46:50;7.30;99.90
30280;DHT22;17097;50.916;5.344;2023-01-16T03:49:26;7.30;99.90
30280;DHT22;17097;50.916;5.344;2023-01-16T03:51:58;7.30;99.90
30280;DHT22;17097;50.916;5.344;2023-01-16T03:57:41;7.50;99.90
30280;DHT22;17097;50.916;5.344;2023-01-16T04:00:10;7.60;99.90
30280;DHT22;17097;50.916;5.344;2023-01-16T04:02:51;7.60;99.90
30280;DHT22;17097;50.916;5.344;2023-01-16T04:05:29;7.50;99.90
30280;DHT22;17097;50.916;5.344;2023-01-16T04:08:00;7.60;99.90
30280;DHT22;17097;50.916;5.344;2023-01-16T04:10:33;7.50;99.90
30280;DHT22;17097;50.916;5.344;2023-01-16T04:13:06;7.60;99.90
30280;DHT22;17097;50.916;5.344;2023-01-16T04:15:40;7.60;99.90
30280;DHT22;17097;50.916;5.344;2023-01-16T04:18:07;7.70;99.90
30280;DHT22;17097;50.916;5.344;2023-01-16T04:20:34;7.60;99.90
30280;DHT22;17097;50.916;5.344;2023-01-16T04:23:01;7.60;99.90
30280;DHT22;17097;50.916;5.344;2023-01-16T04:25:27;7.80;99.90
30280;DHT22;17097;50.916;5.344;2023-01-16T04:27:53;7.80;99.90
30280;DHT22;17097;50.916;5.344;2023-01-16T04:30:19;7.60;99.90
30280;DHT22;17097;50.916;5.344;2023-01-16T04:32:45;7.70;99.90
30280;DHT22;17097;50.916;5.344;2023-01-16T04:35:11;7.80;99.90
30280;DHT22;17097;50.916;5.344;2023-01-16T04:37:39;7.80;99.90
30280;DHT22;17097;50.916;5.344;2023-01-16T04:40:06;7.90;99.90
30280;DHT22;17097;50.916;5.344;2023-01-16T04:42:34;7.80;99.90
30280;DHT22;17097;50.916;5.344;2023-01-16T04:45:01;8.00;99.90
30280;DHT22;17097;50.916;5.344;2023-01-16T04:47:27;7.80;99.90
30280;DHT22;17097;50.916;5.344;2023-01-16T04:49:53;7.90;99.90
30280;DHT22;17097;50.916;5.344;2023-01-16T04:52:21;7.90;99.90
30280;DHT22;17097;50.916;5.344;2023-01-16T04:54:49;7.80;99.90
30280;DHT22;17097;50.916;5.344;2023-01-16T04:57:15;8.00;99.90
30280;DHT22;17097;50.916;5.344;2023-01-16T04:59:41;8.00;99.90
30280;DHT22;17097;50.916;5.344;2023-01-16T05:02:07;7.80;99.90
30280;DHT22;17097;50.916;5.344;2023-01-16T05:04:33;8.00;99.90
30280;DHT22;17097;50.916;5.344;2023-01-16T05:06:59;8.00;99.90
30280;DHT22;17097;50.916;5.344;2023-01-16T05:09:24;8.10;99.90
30280;DHT22;17097;50.916;5.344;2023-01-16T05:11:51;8.00;99.90
30280;DHT22;17097;50.916;5.344;2023-01-16T05:14:16;8.10;99.90
30280;DHT22;17097;50.916;5.344;2023-01-16T05:16:42;8.20;99.90
30280;DHT22;17097;50.916;5.344;2023-01-16T05:19:09;8.20;99.90
30280;DHT22;17097;50.916;5.344;2023-01-16T05:21:35;7.90;99.90
30280;DHT22;17097;50.916;5.344;2023-01-16T05:24:01;8.00;99.90
30280;DHT22;17097;50.916;5.344;2023-01-16T05:26:27;8.00;99.90
30280;DHT22;17097;50.916;5.344;2023-01-16T05:28:54;8.10;99.90
30280;DHT22;17097;50.916;5.344;2023-01-16T05:31:22;8.00;99.90
30280;DHT22;17097;50.916;5.344;2023-01-16T05:33:50;8.00;99.90
30280;DHT22;17097;50.916;5.344;2023-01-16T05:36:16;7.80;99.90
30280;DHT22;17097;50.916;5.344;2023-01-16T05:38:43;7.70;99.90
30280;DHT22;17097;50.916;5.344;2023-01-16T05:41:09;7.80;99.90
30280;DHT22;17097;50.916;5.344;2023-01-16T05:43:35;7.90;99.90
30280;DHT22;17097;50.916;5.344;2023-01-16T05:46:01;7.90;99.90
30280;DHT22;17097;50.916;5.344;2023-01-16T05:48:28;8.10;99.90
30280;DHT22;17097;50.916;5.344;2023-01-16T05:50:56;8.10;99.90
30280;DHT22;17097;50.916;5.344;2023-01-16T05:53:22;8.20;99.90
30280;DHT22;17097;50.916;5.344;2023-01-16T05:55:48;8.20;99.90
30280;DHT22;17097;50.916;5.344;2023-01-16T05:58:16;8.30;99.90
30280;DHT22;17097;50.916;5.344;2023-01-16T06:00:44;8.30;99.90
30280;DHT22;17097;50.916;5.344;2023-01-16T06:03:11;8.00;99.90
30280;DHT22;17097;50.916;5.344;2023-01-16T06:05:39;8.00;99.90
30280;DHT22;17097;50.916;5.344;2023-01-16T06:08:05;7.90;99.90
30280;DHT22;17097;50.916;5.344;2023-01-16T06:10:30;8.00;99.90
30280;DHT22;17097;50.916;5.344;2023-01-16T06:12:56;8.00;99.90
30280;DHT22;17097;50.916;5.344;2023-01-16T06:15:22;8.10;99.90
30280;DHT22;17097;50.916;5.344;2023-01-16T06:17:50;8.00;99.90
30280;DHT22;17097;50.916;5.344;2023-01-16T06:20:17;7.80;99.90
30280;DHT22;17097;50.916;5.344;2023-01-16T06:22:44;7.60;99.90
30280;DHT22;17097;50.916;5.344;2023-01-16T06:25:09;7.60;99.90
30280;DHT22;17097;50.916;5.344;2023-01-16T06:27:35;7.60;99.90
30280;DHT22;17097;50.916;5.344;2023-01-16T06:30:01;7.60;99.90
30280;DHT22;17097;50.916;5.344;2023-01-16T06:32:27;7.60;99.90
30280;DHT22;17097;50.916;5.344;2023-01-16T06:34:53;7.50;99.90
30280;DHT22;17097;50.916;5.344;2023-01-16T06:37:18;7.60;99.90
30280;DHT22;17097;50.916;5.344;2023-01-16T06:39:44;7.70;99.90
30280;DHT22;17097;50.916;5.344;2023-01-16T06:42:11;7.60;99.90
30280;DHT22;17097;50.916;5.344;2023-01-16T06:44:38;7.60;99.90
30280;DHT22;17097;50.916;5.344;2023-01-16T06:47:05;7.60;99.90
30280;DHT22;17097;50.916;5.344;2023-01-16T06:49:32;7.50;99.90
30280;DHT22;17097;50.916;5.344;2023-01-16T06:51:57;7.50;99.90
30280;DHT22;17097;50.916;5.344;2023-01-16T06:54:26;7.50;99.90
30280;DHT22;17097;50.916;5.344;2023-01-16T06:56:52;7.60;99.90
30280;DHT22;17097;50.916;5.344;2023-01-16T06:59:17;7.60;99.90
30280;DHT22;17097;50.916;5.344;2023-01-16T07:01:43;7.60;99.90
30280;DHT22;17097;50.916;5.344;2023-01-16T07:04:09;7.50;99.90
30280;DHT22;17097;50.916;5.344;2023-01-16T07:06:35;7.40;99.90
30280;DHT22;17097;50.916;5.344;2023-01-16T07:09:02;7.20;99.90
30280;DHT22;17097;50.916;5.344;2023-01-16T07:11:28;7.30;99.90
30280;DHT22;17097;50.916;5.344;2023-01-16T07:13:57;7.30;99.90
30280;DHT22;17097;50.916;5.344;2023-01-16T07:16:41;7.50;99.90
30280;DHT22;17097;50.916;5.344;2023-01-16T07:19:45;7.60;99.90
30280;DHT22;17097;50.916;5.344;2023-01-16T07:22:29;7.50;99.90
30280;DHT22;17097;50.916;5.344;2023-01-16T07:25:02;7.40;99.90
30280;DHT22;17097;50.916;5.344;2023-01-16T07:27:31;7.40;99.90
30280;DHT22;17097;50.916;5.344;2023-01-16T07:29:59;7.40;99.90
30280;DHT22;17097;50.916;5.344;2023-01-16T07:32:28;7.40;99.90
30280;DHT22;17097;50.916;5.344;2023-01-16T07:34:54;7.30;99.90
30280;DHT22;17097;50.916;5.344;2023-01-16T07:37:19;7.20;99.90
30280;DHT22;17097;50.916;5.344;2023-01-16T07:39:45;7.20;99.90
30280;DHT22;17097;50.916;5.344;2023-01-16T07:42:13;7.10;99.90
30280;DHT22;17097;50.916;5.344;2023-01-16T07:44:39;6.90;99.90
30280;DHT22;17097;50.916;5.344;2023-01-16T07:47:05;7.00;99.90
30280;DHT22;17097;50.916;5.344;2023-01-16T07:49:33;6.60;99.90
30280;DHT22;17097;50.916;5.344;2023-01-16T07:51:59;6.60;99.90
30280;DHT22;17097;50.916;5.344;2023-01-16T07:54:25;6.60;99.90
30280;DHT22;17097;50.916;5.344;2023-01-16T07:56:51;6.60;99.90
30280;DHT22;17097;50.916;5.344;2023-01-16T07:59:16;6.50;99.90
30280;DHT22;17097;50.916;5.344;2023-01-16T08:01:42;6.60;99.90
30280;DHT22;17097;50.916;5.344;2023-01-16T08:04:09;6.50;99.90
30280;DHT22;17097;50.916;5.344;2023-01-16T08:06:35;6.50;99.90
30280;DHT22;17097;50.916;5.344;2023-01-16T08:09:02;6.50;99.90
30280;DHT22;17097;50.916;5.344;2023-01-16T08:11:27;6.60;99.90
30280;DHT22;17097;50.916;5.344;2023-01-16T08:14:04;6.50;99.90
30280;DHT22;17097;50.916;5.344;2023-01-16T08:16:31;6.60;99.90
30280;DHT22;17097;50.916;5.344;2023-01-16T08:18:57;6.60;99.90
30280;DHT22;17097;50.916;5.344;2023-01-16T08:21:23;6.40;99.90
30280;DHT22;17097;50.916;5.344;2023-01-16T08:23:49;6.40;99.90
30280;DHT22;17097;50.916;5.344;2023-01-16T08:26:15;6.50;99.90
30280;DHT22;17097;50.916;5.344;2023-01-16T08:28:41;6.50;99.90
30280;DHT22;17097;50.916;5.344;2023-01-16T08:31:10;6.60;99.90
30280;DHT22;17097;50.916;5.344;2023-01-16T08:33:38;6.50;99.90
30280;DHT22;17097;50.916;5.344;2023-01-16T08:36:08;6.30;99.90
30280;DHT22;17097;50.916;5.344;2023-01-16T08:38:35;6.40;99.90
30280;DHT22;17097;50.916;5.344;2023-01-16T08:41:01;6.30;99.90
30280;DHT22;17097;50.916;5.344;2023-01-16T08:43:29;6.10;99.90
30280;DHT22;17097;50.916;5.344;2023-01-16T08:46:21;6.20;99.90
30280;DHT22;17097;50.916;5.344;2023-01-16T08:49:12;6.50;99.90
30280;DHT22;17097;50.916;5.344;2023-01-16T08:51:59;6.50;99.90
30280;DHT22;17097;50.916;5.344;2023-01-16T08:54:25;6.40;99.90
30280;DHT22;17097;50.916;5.344;2023-01-16T08:56:51;6.40;99.90
30280;DHT22;17097;50.916;5.344;2023-01-16T08:59:17;6.50;99.90
30280;DHT22;17097;50.916;5.344;2023-01-16T09:01:43;6.50;99.90
30280;DHT22;17097;50.916;5.344;2023-01-16T09:04:09;6.40;99.90
30280;DHT22;17097;50.916;5.344;2023-01-16T09:06:38;6.30;99.90
30280;DHT22;17097;50.916;5.344;2023-01-16T09:09:05;6.50;99.90
30280;DHT22;17097;50.916;5.344;2023-01-16T09:11:33;6.70;99.90
30280;DHT22;17097;50.916;5.344;2023-01-16T09:14:17;6.60;99.90
30280;DHT22;17097;50.916;5.344;2023-01-16T09:16:43;6.50;99.90
30280;DHT22;17097;50.916;5.344;2023-01-16T09:19:09;6.60;99.90
30280;DHT22;17097;50.916;5.344;2023-01-16T09:21:35;6.50;99.90
30280;DHT22;17097;50.916;5.344;2023-01-16T09:24:01;6.60;99.90
30280;DHT22;17097;50.916;5.344;2023-01-16T09:26:28;6.80;99.90
30280;DHT22;17097;50.916;5.344;2023-01-16T09:28:56;6.90;99.90
30280;DHT22;17097;50.916;5.344;2023-01-16T09:31:21;7.10;99.90
30280;DHT22;17097;50.916;5.344;2023-01-16T09:33:50;7.20;99.90
30280;DHT22;17097;50.916;5.344;2023-01-16T09:36:17;7.60;99.90
30280;DHT22;17097;50.916;5.344;2023-01-16T09:38:46;8.10;99.90
30280;DHT22;17097;50.916;5.344;2023-01-16T09:41:13;8.80;99.90
30280;DHT22;17097;50.916;5.344;2023-01-16T09:44:01;9.30;99.90
30280;DHT22;17097;50.916;5.344;2023-01-16T09:46:30;9.60;99.90
30280;DHT22;17097;50.916;5.344;2023-01-16T09:49:28;10.00;99.90
30280;DHT22;17097;50.916;5.344;2023-01-16T09:52:00;11.00;99.90
30280;DHT22;17097;50.916;5.344;2023-01-16T09:54:51;12.00;99.90
30280;DHT22;17097;50.916;5.344;2023-01-16T09:57:36;11.50;99.90
30280;DHT22;17097;50.916;5.344;2023-01-16T10:00:26;11.60;99.90
30280;DHT22;17097;50.916;5.344;2023-01-16T10:02:52;11.90;99.90
30280;DHT22;17097;50.916;5.344;2023-01-16T10:05:19;12.50;99.90
30280;DHT22;17097;50.916;5.344;2023-01-16T10:10:44;13.70;99.90
30280;DHT22;17097;50.916;5.344;2023-01-16T10:13:25;13.40;99.90
30280;DHT22;17097;50.916;5.344;2023-01-16T10:16:46;13.50;99.90
30280;DHT22;17097;50.916;5.344;2023-01-16T10:22:05;13.20;99.90
30280;DHT22;17097;50.916;5.344;2023-01-16T10:25:11;12.20;99.90
30280;DHT22;17097;50.916;5.344;2023-01-16T10:30:21;12.90;99.90
30280;DHT22;17097;50.916;5.344;2023-01-16T10:33:01;12.60;99.90
30280;DHT22;17097;50.916;5.344;2023-01-16T10:35:35;12.90;99.90
30280;DHT22;17097;50.916;5.344;2023-01-16T10:38:25;12.10;99.90
30280;DHT22;17097;50.916;5.344;2023-01-16T10:41:07;11.60;99.90
30280;DHT22;17097;50.916;5.344;2023-01-16T10:43:54;11.00;99.90
30280;DHT22;17097;50.916;5.344;2023-01-16T10:46:40;11.10;99.90
30280;DHT22;17097;50.916;5.344;2023-01-16T10:49:25;10.30;99.90
30280;DHT22;17097;50.916;5.344;2023-01-16T10:51:58;9.90;99.90
30280;DHT22;17097;50.916;5.344;2023-01-16T10:54:26;9.80;99.90
30280;DHT22;17097;50.916;5.344;2023-01-16T10:56:54;9.50;99.90
30280;DHT22;17097;50.916;5.344;2023-01-16T10:59:23;9.30;99.90
30280;DHT22;17097;50.916;5.344;2023-01-16T11:01:50;9.50;99.90
30280;DHT22;17097;50.916;5.344;2023-01-16T11:04:18;9.60;99.90
30280;DHT22;17097;50.916;5.344;2023-01-16T11:06:47;9.50;99.90
30280;DHT22;17097;50.916;5.344;2023-01-16T11:11:39;8.80;99.90
30280;DHT22;17097;50.916;5.344;2023-01-16T11:20:09;8.50;99.90
30280;DHT22;17097;50.916;5.344;2023-01-16T11:22:39;8.70;99.90
30280;DHT22;17097;50.916;5.344;2023-01-16T11:25:08;8.80;99.90
30280;DHT22;17097;50.916;5.344;2023-01-16T11:27:39;8.70;99.90
30280;DHT22;17097;50.916;5.344;2023-01-16T11:30:14;8.70;99.90
30280;DHT22;17097;50.916;5.344;2023-01-16T11:32:45;8.70;99.90
30280;DHT22;17097;50.916;5.344;2023-01-16T11:35:15;9.10;99.90
30280;DHT22;17097;50.916;5.344;2023-01-16T11:37:44;9.20;99.90
30280;DHT22;17097;50.916;5.344;2023-01-16T11:40:20;8.80;99.90
30280;DHT22;17097;50.916;5.344;2023-01-16T11:42:56;8.70;99.90
30280;DHT22;17097;50.916;5.344;2023-01-16T11:45:45;8.70;99.90
30280;DHT22;17097;50.916;5.344;2023-01-16T11:48:43;8.60;99.90
30280;DHT22;17097;50.916;5.344;2023-01-16T11:51:19;8.60;99.90
30280;DHT22;17097;50.916;5.344;2023-01-16T11:53:48;9.00;99.90
30280;DHT22;17097;50.916;5.344;2023-01-16T12:04:37;9.50;99.90
30280;DHT22;17097;50.916;5.344;2023-01-16T12:07:30;9.30;99.90
30280;DHT22;17097;50.916;5.344;2023-01-16T12:10:09;9.40;99.90
30280;DHT22;17097;50.916;5.344;2023-01-16T12:12:48;9.60;99.90
30280;DHT22;17097;50.916;5.344;2023-01-16T12:15:49;9.40;99.90
30280;DHT22;17097;50.916;5.344;2023-01-16T12:18:30;9.10;99.90
30280;DHT22;17097;50.916;5.344;2023-01-16T12:21:03;9.40;99.90
30280;DHT22;17097;50.916;5.344;2023-01-16T12:26:34;9.20;99.90
30280;DHT22;17097;50.916;5.344;2023-01-16T12:29:18;8.70;99.90
30280;DHT22;17097;50.916;5.344;2023-01-16T12:31:58;8.80;99.90
30280;DHT22;17097;50.916;5.344;2023-01-16T12:39:49;8.50;99.90
30280;DHT22;17097;50.916;5.344;2023-01-16T12:58:38;8.20;99.90
30280;DHT22;17097;50.916;5.344;2023-01-16T13:01:20;8.30;99.90
30280;DHT22;17097;50.916;5.344;2023-01-16T13:04:14;8.30;99.90
30280;DHT22;17097;50.916;5.344;2023-01-16T13:06:52;8.30;99.90
30280;DHT22;17097;50.916;5.344;2023-01-16T13:09:28;8.20;99.90
30280;DHT22;17097;50.916;5.344;2023-01-16T13:14:43;8.00;99.90
30280;DHT22;17097;50.916;5.344;2023-01-16T13:17:13;8.10;99.90
30280;DHT22;17097;50.916;5.344;2023-01-16T13:19:40;8.20;99.90
30280;DHT22;17097;50.916;5.344;2023-01-16T13:22:18;8.10;99.90
30280;DHT22;17097;50.916;5.344;2023-01-16T13:24:55;8.00;99.90
30280;DHT22;17097;50.916;5.344;2023-01-16T13:27:36;8.00;99.90
30280;DHT22;17097;50.916;5.344;2023-01-16T13:30:07;8.00;99.90
30280;DHT22;17097;50.916;5.344;2023-01-16T13:32:54;8.10;99.90
30280;DHT22;17097;50.916;5.344;2023-01-16T13:35:26;8.20;99.90
30280;DHT22;17097;50.916;5.344;2023-01-16T13:38:06;8.40;99.90
30280;DHT22;17097;50.916;5.344;2023-01-16T13:41:23;8.60;99.90
30280;DHT22;17097;50.916;5.344;2023-01-16T13:46:43;9.00;99.90
30280;DHT22;17097;50.916;5.344;2023-01-16T13:49:22;8.90;99.90
30280;DHT22;17097;50.916;5.344;2023-01-16T13:51:50;8.80;99.90
30280;DHT22;17097;50.916;5.344;2023-01-16T13:54:22;8.70;99.90
30280;DHT22;17097;50.916;5.344;2023-01-16T13:57:01;8.50;99.90
30280;DHT22;17097;50.916;5.344;2023-01-16T13:59:37;8.60;99.90
30280;DHT22;17097;50.916;5.344;2023-01-16T14:10:46;8.40;99.90
30280;DHT22;17097;50.916;5.344;2023-01-16T14:13:21;8.30;99.90
30280;DHT22;17097;50.916;5.344;2023-01-16T14:18:40;8.30;99.90
30280;DHT22;17097;50.916;5.344;2023-01-16T14:21:18;8.30;99.90
30280;DHT22;17097;50.916;5.344;2023-01-16T14:23:49;8.20;99.90
30280;DHT22;17097;50.916;5.344;2023-01-16T14:26:52;8.40;99.90
30280;DHT22;17097;50.916;5.344;2023-01-16T14:29:32;8.40;99.90
30280;DHT22;17097;50.916;5.344;2023-01-16T14:32:17;8.50;99.90
30280;DHT22;17097;50.916;5.344;2023-01-16T14:34:59;8.50;99.90
30280;DHT22;17097;50.916;5.344;2023-01-16T14:37:32;8.50;99.90
30280;DHT22;17097;50.916;5.344;2023-01-16T14:42:33;8.00;99.90
30280;DHT22;17097;50.916;5.344;2023-01-16T14:45:23;8.00;99.90
30280;DHT22;17097;50.916;5.344;2023-01-16T14:56:50;7.80;99.90
30280;DHT22;17097;50.916;5.344;2023-01-16T14:59:27;7.90;99.90
30280;DHT22;17097;50.916;5.344;2023-01-16T15:07:16;7.80;99.90
30280;DHT22;17097;50.916;5.344;2023-01-16T15:09:44;7.80;99.90
30280;DHT22;17097;50.916;5.344;2023-01-16T15:12:15;7.90;99.90
30280;DHT22;17097;50.916;5.344;2023-01-16T15:14:57;7.90;99.90
30280;DHT22;17097;50.916;5.344;2023-01-16T15:17:31;7.90;99.90
30280;DHT22;17097;50.916;5.344;2023-01-16T15:20:18;7.70;99.90
30280;DHT22;17097;50.916;5.344;2023-01-16T15:23:14;7.60;99.90
30280;DHT22;17097;50.916;5.344;2023-01-16T15:26:11;7.70;99.90
30280;DHT22;17097;50.916;5.344;2023-01-16T15:31:35;7.60;99.90
30280;DHT22;17097;50.916;5.344;2023-01-16T15:36:41;7.70;99.90
30280;DHT22;17097;50.916;5.344;2023-01-16T15:41:38;7.90;99.90
30280;DHT22;17097;50.916;5.344;2023-01-16T15:44:26;7.80;99.90
30280;DHT22;17097;50.916;5.344;2023-01-16T15:53:02;7.80;99.90
30280;DHT22;17097;50.916;5.344;2023-01-16T15:55:35;7.70;99.90
30280;DHT22;17097;50.916;5.344;2023-01-16T15:58:03;7.80;99.90
30280;DHT22;17097;50.916;5.344;2023-01-16T16:00:37;7.80;99.90
30280;DHT22;17097;50.916;5.344;2023-01-16T16:03:15;7.80;99.90
30280;DHT22;17097;50.916;5.344;2023-01-16T16:05:47;8.00;99.90
30280;DHT22;17097;50.916;5.344;2023-01-16T16:08:25;8.00;99.90
30280;DHT22;17097;50.916;5.344;2023-01-16T16:10:53;7.90;99.90
30280;DHT22;17097;50.916;5.344;2023-01-16T16:13:39;8.00;99.90
30280;DHT22;17097;50.916;5.344;2023-01-16T16:16:25;8.00;99.90
30280;DHT22;17097;50.916;5.344;2023-01-16T16:19:33;8.00;99.90
30280;DHT22;17097;50.916;5.344;2023-01-16T16:22:03;8.00;99.90
30280;DHT22;17097;50.916;5.344;2023-01-16T16:24:51;7.90;99.90
30280;DHT22;17097;50.916;5.344;2023-01-16T16:27:17;7.90;99.90
30280;DHT22;17097;50.916;5.344;2023-01-16T16:29:53;8.00;99.90
30280;DHT22;17097;50.916;5.344;2023-01-16T16:32:19;8.10;99.90
30280;DHT22;17097;50.916;5.344;2023-01-16T16:34:56;8.20;99.90
30280;DHT22;17097;50.916;5.344;2023-01-16T16:37:23;8.20;99.90
30280;DHT22;17097;50.916;5.344;2023-01-16T16:40:12;8.20;99.90
30280;DHT22;17097;50.916;5.344;2023-01-16T16:45:30;8.40;99.90
30280;DHT22;17097;50.916;5.344;2023-01-16T16:50:43;8.30;99.90
30280;DHT22;17097;50.916;5.344;2023-01-16T16:53:24;8.30;99.90
30280;DHT22;17097;50.916;5.344;2023-01-16T16:56:08;8.40;99.90
30280;DHT22;17097;50.916;5.344;2023-01-16T16:58:43;8.50;99.90
30280;DHT22;17097;50.916;5.344;2023-01-16T17:01:15;8.50;99.90
30280;DHT22;17097;50.916;5.344;2023-01-16T17:03:44;8.40;99.90
30280;DHT22;17097;50.916;5.344;2023-01-16T17:06:17;8.10;99.90
30280;DHT22;17097;50.916;5.344;2023-01-16T17:08:43;8.00;99.90
30280;DHT22;17097;50.916;5.344;2023-01-16T17:11:13;8.20;99.90
30280;DHT22;17097;50.916;5.344;2023-01-16T17:13:39;8.10;99.90
30280;DHT22;17097;50.916;5.344;2023-01-16T17:16:17;7.50;99.90
30280;DHT22;17097;50.916;5.344;2023-01-16T17:18:43;7.30;99.90
30280;DHT22;17097;50.916;5.344;2023-01-16T17:21:15;6.90;99.90
30280;DHT22;17097;50.916;5.344;2023-01-16T17:23:42;6.50;99.90
30280;DHT22;17097;50.916;5.344;2023-01-16T17:26:08;6.70;99.90
30280;DHT22;17097;50.916;5.344;2023-01-16T17:28:39;6.50;99.90
30280;DHT22;17097;50.916;5.344;2023-01-16T17:31:16;6.50;99.90
30280;DHT22;17097;50.916;5.344;2023-01-16T17:33:45;6.20;99.90
30280;DHT22;17097;50.916;5.344;2023-01-16T17:36:13;6.20;99.90
30280;DHT22;17097;50.916;5.344;2023-01-16T17:38:41;6.20;99.90
30280;DHT22;17097;50.916;5.344;2023-01-16T17:41:18;6.00;99.90
30280;DHT22;17097;50.916;5.344;2023-01-16T17:44:08;5.90;99.90
30280;DHT22;17097;50.916;5.344;2023-01-16T17:46:53;6.00;99.90
30280;DHT22;17097;50.916;5.344;2023-01-16T17:49:19;5.80;99.90
30280;DHT22;17097;50.916;5.344;2023-01-16T17:51:45;5.60;99.90
30280;DHT22;17097;50.916;5.344;2023-01-16T17:54:13;5.50;99.90
30280;DHT22;17097;50.916;5.344;2023-01-16T17:56:59;5.40;99.90
30280;DHT22;17097;50.916;5.344;2023-01-16T17:59:25;5.50;99.90
30280;DHT22;17097;50.916;5.344;2023-01-16T18:01:53;5.50;99.90
30280;DHT22;17097;50.916;5.344;2023-01-16T18:04:19;5.30;99.90
30280;DHT22;17097;50.916;5.344;2023-01-16T18:06:45;5.50;99.90
30280;DHT22;17097;50.916;5.344;2023-01-16T18:09:12;5.60;99.90
30280;DHT22;17097;50.916;5.344;2023-01-16T18:11:43;5.60;99.90
30280;DHT22;17097;50.916;5.344;2023-01-16T18:14:28;5.60;99.90
30280;DHT22;17097;50.916;5.344;2023-01-16T18:17:15;5.60;99.90
30280;DHT22;17097;50.916;5.344;2023-01-16T18:19:58;5.70;99.90
30280;DHT22;17097;50.916;5.344;2023-01-16T18:22:32;5.60;99.90
30280;DHT22;17097;50.916;5.344;2023-01-16T18:25:02;5.60;99.90
30280;DHT22;17097;50.916;5.344;2023-01-16T18:27:28;5.60;99.90
30280;DHT22;17097;50.916;5.344;2023-01-16T18:30:00;5.50;99.90
30280;DHT22;17097;50.916;5.344;2023-01-16T18:32:26;5.50;99.90
30280;DHT22;17097;50.916;5.344;2023-01-16T18:34:53;5.60;99.90
30280;DHT22;17097;50.916;5.344;2023-01-16T18:37:29;5.60;99.90
30280;DHT22;17097;50.916;5.344;2023-01-16T18:39:55;5.70;99.90